createdAt,value
2023-03-12T00:00:16.940Z,1.35
2023-03-12T00:02:47.387Z,1.47
2023-03-12T00:05:14.123Z,1.85
2023-03-12T00:07:40.574Z,1.58
2023-03-12T00:10:07.861Z,1.92
2023-03-12T00:12:34.733Z,1.48
2023-03-12T00:15:03.103Z,1.73
2023-03-12T00:17:34.848Z,1.30
2023-03-12T00:20:04.472Z,1.80
2023-03-12T00:22:31.039Z,1.52
2023-03-12T00:24:58.280Z,1.50
2023-03-12T00:27:26.218Z,1.43
2023-03-12T00:29:53.220Z,1.38
2023-03-12T00:32:20.264Z,1.13
2023-03-12T00:34:55.085Z,1.67
2023-03-12T00:37:22.652Z,1.70
2023-03-12T00:39:49.338Z,1.70
2023-03-12T00:42:17.001Z,2.25
2023-03-12T00:44:44.460Z,1.83
2023-03-12T00:47:11.751Z,2.30
2023-03-12T00:49:39.696Z,2.22
2023-03-12T00:52:10.868Z,2.20
2023-03-12T00:54:39.904Z,2.90
2023-03-12T00:57:06.579Z,2.35
2023-03-12T00:59:41.041Z,2.53
2023-03-12T01:04:57.441Z,2.80
2023-03-12T01:12:58.327Z,2.63
2023-03-12T01:15:25.530Z,3.15
2023-03-12T01:17:52.046Z,2.07
2023-03-12T01:20:18.521Z,2.10
2023-03-12T01:22:45.081Z,2.83
2023-03-12T01:25:12.342Z,2.25
2023-03-12T01:27:39.210Z,2.50
2023-03-12T01:30:16.931Z,2.27
2023-03-12T01:32:45.318Z,2.38
2023-03-12T01:35:12.237Z,2.45
2023-03-12T01:37:50.254Z,2.42
2023-03-12T01:40:22.162Z,2.72
2023-03-12T01:43:01.800Z,2.00
2023-03-12T01:46:11.514Z,2.65
2023-03-12T01:48:45.929Z,2.42
2023-03-12T01:51:18.974Z,2.60
2023-03-12T01:53:50.023Z,2.22
2023-03-12T01:56:20.045Z,2.47
2023-03-12T01:58:56.847Z,2.47
2023-03-12T02:01:29.792Z,2.40
2023-03-12T02:04:00.098Z,2.28
2023-03-12T02:06:34.515Z,2.20
2023-03-12T02:09:03.481Z,2.63
2023-03-12T02:11:29.994Z,2.00
2023-03-12T02:13:56.687Z,2.40
2023-03-12T02:16:23.252Z,2.55
2023-03-12T02:18:51.620Z,1.90
2023-03-12T02:21:24.647Z,1.97
2023-03-12T02:24:19.496Z,2.28
2023-03-12T02:26:46.551Z,2.50
2023-03-12T02:29:13.904Z,2.40
2023-03-12T02:31:48.740Z,2.30
2023-03-12T02:34:15.326Z,2.30
2023-03-12T02:36:44.812Z,2.10
2023-03-12T02:39:13.104Z,2.65
2023-03-12T02:41:42.974Z,2.08
2023-03-12T02:44:16.462Z,2.33
2023-03-12T02:46:46.128Z,2.00
2023-03-12T02:49:14.461Z,1.85
2023-03-12T02:51:42.313Z,1.58
2023-03-12T02:54:09.358Z,1.80
2023-03-12T02:56:36.107Z,1.98
2023-03-12T02:59:04.481Z,2.03
2023-03-12T03:01:34.207Z,2.08
2023-03-12T03:04:05.643Z,1.88
2023-03-12T03:06:32.653Z,1.52
2023-03-12T03:08:59.606Z,1.98
2023-03-12T03:11:26.390Z,2.00
2023-03-12T03:13:53.440Z,1.67
2023-03-12T03:16:21.027Z,1.65
2023-03-12T03:18:47.481Z,1.15
2023-03-12T03:21:16.644Z,1.15
2023-03-12T03:23:48.118Z,1.50
2023-03-12T03:26:16.196Z,1.40
2023-03-12T03:31:08.161Z,1.60
2023-03-12T03:33:36.570Z,1.40
2023-03-12T03:36:03.806Z,1.30
2023-03-12T03:38:31.366Z,1.40
2023-03-12T03:40:58.344Z,1.02
2023-03-12T03:43:24.969Z,1.25
2023-03-12T03:46:03.099Z,1.27
2023-03-12T03:48:29.856Z,1.52
2023-03-12T03:51:04.696Z,1.40
2023-03-12T03:53:31.510Z,1.30
2023-03-12T03:55:58.444Z,1.50
2023-03-12T03:58:25.069Z,1.63
2023-03-12T04:00:51.518Z,1.67
2023-03-12T04:03:18.065Z,1.07
2023-03-12T04:05:45.632Z,1.10
2023-03-12T04:08:13.652Z,1.33
2023-03-12T04:10:40.709Z,1.05
2023-03-12T04:13:07.366Z,1.48
2023-03-12T04:15:33.956Z,1.00
2023-03-12T04:18:00.414Z,0.98
2023-03-12T04:20:26.939Z,1.38
2023-03-12T04:22:53.399Z,1.35
2023-03-12T04:25:20.073Z,1.33
2023-03-12T04:27:46.650Z,1.20
2023-03-12T04:30:13.584Z,1.02
2023-03-12T04:32:40.244Z,1.30
2023-03-12T04:35:06.923Z,1.38
2023-03-12T04:37:34.456Z,1.20
2023-03-12T04:40:03.209Z,1.80
2023-03-12T04:42:29.788Z,1.27
2023-03-12T04:44:56.284Z,1.45
2023-03-12T04:47:22.832Z,1.90
2023-03-12T04:49:49.228Z,1.45
2023-03-12T04:52:17.571Z,1.53
2023-03-12T04:54:46.797Z,1.38
2023-03-12T04:57:14.486Z,1.70
2023-03-12T04:59:40.999Z,1.90
2023-03-12T05:02:07.459Z,1.98
2023-03-12T05:04:34.053Z,1.93
2023-03-12T05:07:00.518Z,2.30
2023-03-12T05:09:26.981Z,1.73
2023-03-12T05:11:53.788Z,1.77
2023-03-12T05:14:20.538Z,1.67
2023-03-12T05:16:47.119Z,1.83
2023-03-12T05:19:13.513Z,1.65
2023-03-12T05:21:49.023Z,1.92
2023-03-12T05:24:16.294Z,1.67
2023-03-12T05:26:42.959Z,2.08
2023-03-12T05:29:09.457Z,2.03
2023-03-12T05:31:36.613Z,2.08
2023-03-12T05:34:05.670Z,2.08
2023-03-12T05:36:32.294Z,2.08
2023-03-12T05:38:58.897Z,1.60
2023-03-12T05:41:29.040Z,1.70
2023-03-12T05:43:56.762Z,1.80
2023-03-12T05:46:27.488Z,2.17
2023-03-12T05:48:53.911Z,1.67
2023-03-12T05:51:21.252Z,1.80
2023-03-12T05:53:48.166Z,1.40
2023-03-12T05:56:17.784Z,1.77
2023-03-12T05:58:44.826Z,1.90
2023-03-12T06:01:14.666Z,2.15
2023-03-12T06:03:42.970Z,1.80
2023-03-12T06:06:09.914Z,1.60
2023-03-12T06:08:36.570Z,1.63
2023-03-12T06:11:03.542Z,2.25
2023-03-12T06:13:30.182Z,2.50
2023-03-12T06:16:03.278Z,2.13
2023-03-12T06:18:29.850Z,1.30
2023-03-12T06:20:56.431Z,1.85
2023-03-12T06:23:22.853Z,1.90
2023-03-12T06:25:49.287Z,2.45
2023-03-12T06:28:15.835Z,2.00
2023-03-12T06:30:44.954Z,2.37
2023-03-12T06:33:11.441Z,2.03
2023-03-12T06:35:37.940Z,2.67
2023-03-12T06:38:04.583Z,1.60
2023-03-12T06:40:31.061Z,2.15
2023-03-12T06:42:57.418Z,1.97
2023-03-12T06:45:23.926Z,2.20
2023-03-12T06:47:50.363Z,2.90
2023-03-12T06:50:16.893Z,2.50
2023-03-12T06:52:43.504Z,2.53
2023-03-12T06:55:10.242Z,2.33
2023-03-12T06:57:37.088Z,2.65
2023-03-12T07:00:05.213Z,3.05
2023-03-12T07:02:31.699Z,2.55
2023-03-12T07:05:01.404Z,3.05
2023-03-12T07:07:27.981Z,2.40
2023-03-12T07:09:54.457Z,2.60
2023-03-12T07:12:21.016Z,2.30
2023-03-12T07:14:50.198Z,2.30
2023-03-12T07:17:16.741Z,2.60
2023-03-12T07:19:43.298Z,2.93
2023-03-12T07:22:09.677Z,3.10
2023-03-12T07:24:37.371Z,2.65
2023-03-12T07:27:04.132Z,2.80
2023-03-12T07:29:30.794Z,2.75
2023-03-12T07:31:57.230Z,3.77
2023-03-12T07:34:23.806Z,3.08
2023-03-12T07:36:50.807Z,2.80
2023-03-12T07:39:17.868Z,2.75
2023-03-12T07:41:44.713Z,3.50
2023-03-12T07:44:11.230Z,3.80
2023-03-12T07:46:37.832Z,2.75
2023-03-12T07:49:04.899Z,3.20
2023-03-12T07:51:31.581Z,2.45
2023-03-12T07:53:58.365Z,3.50
2023-03-12T07:56:25.097Z,3.33
2023-03-12T07:58:51.794Z,3.45
2023-03-12T08:01:18.326Z,3.00
2023-03-12T08:03:45.063Z,3.13
2023-03-12T08:06:11.996Z,3.65
2023-03-12T08:08:41.721Z,3.60
2023-03-12T08:11:09.521Z,3.53
2023-03-12T08:13:36.704Z,2.88
2023-03-12T08:16:03.625Z,3.13
2023-03-12T08:18:30.196Z,3.97
2023-03-12T08:20:56.698Z,3.57
2023-03-12T08:23:23.698Z,3.83
2023-03-12T08:25:51.053Z,4.57
2023-03-12T08:28:18.956Z,4.47
2023-03-12T08:30:50.927Z,4.05
2023-03-12T08:33:17.413Z,3.77
2023-03-12T08:35:44.867Z,3.97
2023-03-12T08:38:11.933Z,4.25
2023-03-12T08:40:38.552Z,3.88
2023-03-12T08:43:04.934Z,4.32
2023-03-12T08:45:31.782Z,4.00
2023-03-12T08:47:58.382Z,4.65
2023-03-12T08:50:29.234Z,4.68
2023-03-12T08:52:56.234Z,4.82
2023-03-12T08:55:22.878Z,4.78
2023-03-12T08:57:49.429Z,5.17
2023-03-12T09:00:23.660Z,4.65
2023-03-12T09:02:52.164Z,4.88
2023-03-12T09:05:19.334Z,6.15
2023-03-12T09:07:45.794Z,5.15
2023-03-12T09:10:12.300Z,5.00
2023-03-12T09:12:38.976Z,5.20
2023-03-12T09:15:06.272Z,4.47
2023-03-12T09:17:32.912Z,4.82
2023-03-12T09:20:00.276Z,5.00
2023-03-12T09:22:26.784Z,6.10
2023-03-12T09:24:53.182Z,5.70
2023-03-12T09:27:19.737Z,6.30
2023-03-12T09:29:59.504Z,5.68
2023-03-12T09:32:27.515Z,6.55
2023-03-12T09:34:54.539Z,7.03
2023-03-12T09:37:23.962Z,6.57
2023-03-12T09:39:51.606Z,7.18
2023-03-12T09:42:47.404Z,7.32
2023-03-12T09:45:29.976Z,7.00
2023-03-12T09:48:02.917Z,7.00
2023-03-12T09:50:34.753Z,6.65
2023-03-12T09:53:03.050Z,6.80
2023-03-12T09:55:37.176Z,7.18
2023-03-12T09:58:04.342Z,7.90
2023-03-12T10:00:34.818Z,7.10
2023-03-12T10:03:12.291Z,7.43
2023-03-12T10:06:04.100Z,8.52
2023-03-12T10:08:33.646Z,8.15
2023-03-12T10:11:09.416Z,9.43
2023-03-12T10:13:51.097Z,8.77
2023-03-12T10:16:40.284Z,6.90
2023-03-12T10:22:34.713Z,8.70
2023-03-12T10:25:40.590Z,8.45
2023-03-12T10:28:17.524Z,8.53
2023-03-12T10:30:51.986Z,8.25
2023-03-12T10:33:19.938Z,8.32
2023-03-12T10:35:47.956Z,8.70
2023-03-12T10:38:26.439Z,9.10
2023-03-12T10:40:52.898Z,8.27
2023-03-12T10:43:19.289Z,8.70
2023-03-12T10:46:12.096Z,8.77
2023-03-12T10:48:38.558Z,9.50
2023-03-12T10:51:12.419Z,8.77
2023-03-12T10:53:45.038Z,9.03
2023-03-12T10:56:18.419Z,7.90
2023-03-12T10:58:47.572Z,8.38
2023-03-12T11:01:26.522Z,8.07
2023-03-12T11:04:08.011Z,7.50
2023-03-12T11:06:37.673Z,7.50
2023-03-12T11:09:17.321Z,7.55
2023-03-12T11:11:45.306Z,6.70
2023-03-12T11:14:22.067Z,6.30
2023-03-12T11:16:50.509Z,6.82
2023-03-12T11:19:32.764Z,6.63
2023-03-12T11:22:04.773Z,6.60
2023-03-12T11:24:31.790Z,5.15
2023-03-12T11:27:25.565Z,5.28
2023-03-12T11:29:53.250Z,5.18
2023-03-12T11:32:42.793Z,5.80
2023-03-12T11:35:19.856Z,4.82
2023-03-12T11:38:17.807Z,5.45
2023-03-12T11:41:02.558Z,5.20
2023-03-12T11:43:52.775Z,4.03
2023-03-12T11:46:50.176Z,4.10
2023-03-12T11:49:49.650Z,3.70
2023-03-12T11:52:45.193Z,4.35
2023-03-12T11:55:21.545Z,3.88
2023-03-12T11:58:17.172Z,7.15
2023-03-12T12:01:10.078Z,4.20
2023-03-12T12:03:54.779Z,4.00
2023-03-12T12:06:53.900Z,3.90
2023-03-12T12:09:39.827Z,4.35
2023-03-12T12:12:19.568Z,3.63
2023-03-12T12:15:12.502Z,3.10
2023-03-12T12:18:00.223Z,3.45
2023-03-12T12:20:43.552Z,3.42
2023-03-12T12:23:17.726Z,3.20
2023-03-12T12:26:07.143Z,2.85
2023-03-12T12:28:37.426Z,3.03
2023-03-12T12:31:16.011Z,2.70
2023-03-12T12:34:19.851Z,3.83
2023-03-12T12:37:19.792Z,2.92
2023-03-12T12:39:55.254Z,3.00
2023-03-12T12:42:26.524Z,3.40
2023-03-12T12:44:58.180Z,3.55
2023-03-12T12:47:40.426Z,2.90
2023-03-12T12:50:12.649Z,3.20
2023-03-12T12:52:39.231Z,3.38
2023-03-12T12:55:21.598Z,3.77
2023-03-12T12:58:00.637Z,3.53
2023-03-12T13:00:43.014Z,2.92
2023-03-12T13:03:17.614Z,2.88
2023-03-12T13:05:47.397Z,3.40
2023-03-12T13:08:40.097Z,2.83
2023-03-12T13:11:26.236Z,3.92
2023-03-12T13:14:05.008Z,4.10
2023-03-12T13:16:43.273Z,3.97
2023-03-12T13:19:16.153Z,3.92
2023-03-12T13:22:17.129Z,4.17
2023-03-12T13:25:20.540Z,4.05
2023-03-12T13:27:58.793Z,3.13
2023-03-12T13:30:34.520Z,3.88
2023-03-12T13:33:04.157Z,3.50
2023-03-12T13:35:38.215Z,3.60
2023-03-12T13:38:15.219Z,3.78
2023-03-12T13:40:56.222Z,3.22
2023-03-12T13:43:41.724Z,2.25
2023-03-12T13:46:27.751Z,2.97
2023-03-12T13:48:59.720Z,3.53
2023-03-12T13:51:26.704Z,2.85
2023-03-12T13:53:58.074Z,4.07
2023-03-12T13:56:33.448Z,3.13
2023-03-12T13:59:03.943Z,3.20
2023-03-12T14:01:43.485Z,3.53
2023-03-12T14:04:25.590Z,3.38
2023-03-12T14:07:22.013Z,2.78
2023-03-12T14:10:18.670Z,2.58
2023-03-12T14:13:13.206Z,2.55
2023-03-12T14:16:01.145Z,2.90
2023-03-12T14:18:31.272Z,2.38
2023-03-12T14:21:08.037Z,2.10
2023-03-12T14:23:56.547Z,2.00
2023-03-12T14:26:33.266Z,2.30
2023-03-12T14:29:15.420Z,2.63
2023-03-12T14:31:43.015Z,2.25
2023-03-12T14:34:18.960Z,2.67
2023-03-12T14:37:12.676Z,2.63
2023-03-12T14:39:58.211Z,2.72
2023-03-12T14:42:34.023Z,2.10
2023-03-12T14:45:10.568Z,1.55
2023-03-12T14:48:00.967Z,2.25
2023-03-12T14:50:36.575Z,1.92
2023-03-12T14:53:28.284Z,2.47
2023-03-12T14:56:38.279Z,1.53
2023-03-12T14:59:37.396Z,1.80
2023-03-12T15:02:16.645Z,1.48
2023-03-12T15:04:49.380Z,1.77
2023-03-12T15:07:27.715Z,2.58
2023-03-12T15:09:54.961Z,2.50
2023-03-12T15:12:57.437Z,3.60
2023-03-12T15:15:27.900Z,1.88
2023-03-12T15:17:59.511Z,2.00
2023-03-12T15:20:30.197Z,2.00
2023-03-12T15:22:57.505Z,1.30
2023-03-12T15:25:30.426Z,2.58
2023-03-12T15:28:03.055Z,2.25
2023-03-12T15:30:32.243Z,2.92
2023-03-12T15:33:06.822Z,2.38
2023-03-12T15:35:43.511Z,2.27
2023-03-12T15:38:19.320Z,2.15
2023-03-12T15:41:00.540Z,2.00
2023-03-12T15:43:27.622Z,2.47
2023-03-12T15:46:08.205Z,2.08
2023-03-12T15:48:40.352Z,1.90
2023-03-12T15:51:33.506Z,1.83
2023-03-12T15:54:16.945Z,1.85
2023-03-12T15:56:54.146Z,2.53
2023-03-12T15:59:32.959Z,2.00
2023-03-12T16:02:03.306Z,2.20
2023-03-12T16:07:37.433Z,2.50
2023-03-12T16:10:05.248Z,2.25
2023-03-12T16:12:32.019Z,2.20
2023-03-12T16:14:59.743Z,2.77
2023-03-12T16:17:34.879Z,2.70
2023-03-12T16:20:10.046Z,2.03
2023-03-12T16:22:36.526Z,2.15
2023-03-12T16:25:04.393Z,1.98
2023-03-12T16:27:33.007Z,2.27
2023-03-12T16:30:00.158Z,2.15
2023-03-12T16:32:26.638Z,2.20
2023-03-12T16:34:53.168Z,3.35
2023-03-12T16:37:20.632Z,2.08
2023-03-12T16:39:48.793Z,2.50
2023-03-12T16:42:24.994Z,2.67
2023-03-12T16:45:03.347Z,2.45
2023-03-12T16:47:30.665Z,2.30
2023-03-12T16:49:57.797Z,3.33
2023-03-12T16:52:32.803Z,2.60
2023-03-12T16:55:10.761Z,2.30
2023-03-12T16:57:44.433Z,3.55
2023-03-12T17:00:47.640Z,2.78
2023-03-12T17:03:49.805Z,2.78
2023-03-12T17:06:22.383Z,2.73
2023-03-12T17:14:23.216Z,2.92
2023-03-12T17:16:58.399Z,2.90
2023-03-12T17:19:25.399Z,3.10
2023-03-12T17:22:13.692Z,2.75
2023-03-12T17:24:44.153Z,3.08
2023-03-12T17:30:19.577Z,2.45
2023-03-12T17:38:54.932Z,2.03
2023-03-12T17:41:26.911Z,2.10
2023-03-12T17:44:04.207Z,2.28
2023-03-12T17:46:58.477Z,1.97
2023-03-12T17:49:46.060Z,3.28
2023-03-12T17:52:19.787Z,2.20
2023-03-12T17:57:30.911Z,2.30
2023-03-12T17:59:57.759Z,1.33
2023-03-12T18:02:24.684Z,1.60
2023-03-12T18:04:52.020Z,1.63
2023-03-12T18:07:26.369Z,2.40
2023-03-12T18:09:54.817Z,2.63
2023-03-12T18:12:23.537Z,2.67
2023-03-12T18:15:19.725Z,1.90
2023-03-12T18:17:50.032Z,1.45
2023-03-12T18:26:05.942Z,2.07
2023-03-12T18:28:43.210Z,1.95
2023-03-12T18:31:19.424Z,1.45
2023-03-12T18:33:46.047Z,1.20
2023-03-12T18:36:13.671Z,0.80
2023-03-12T18:38:43.087Z,0.87
2023-03-12T18:41:12.911Z,1.02
2023-03-12T18:49:13.854Z,1.15
2023-03-12T18:54:25.615Z,0.90
2023-03-12T18:56:58.439Z,1.27
2023-03-12T18:59:52.953Z,0.63
2023-03-12T19:02:28.244Z,1.55
2023-03-12T19:04:59.867Z,1.03
2023-03-12T19:07:36.080Z,1.80
2023-03-12T19:10:10.506Z,0.65
2023-03-12T19:12:50.837Z,0.73
2023-03-12T19:15:18.680Z,1.02
2023-03-12T19:17:45.794Z,0.63
2023-03-12T19:20:23.545Z,0.82
2023-03-12T19:22:50.759Z,1.30
2023-03-12T19:25:23.731Z,1.08
2023-03-12T19:27:57.692Z,0.40
2023-03-12T19:30:44.062Z,0.97
2023-03-12T19:33:16.646Z,0.73
2023-03-12T19:35:43.276Z,1.00
2023-03-12T19:38:09.747Z,1.88
2023-03-12T19:40:38.908Z,0.98
2023-03-12T19:45:48.316Z,1.30
2023-03-12T19:48:17.546Z,1.42
2023-03-12T19:50:54.523Z,1.10
2023-03-12T19:53:29.386Z,1.63
2023-03-12T19:56:22.610Z,3.00
2023-03-12T19:58:50.490Z,1.52
2023-03-12T20:01:20.868Z,1.60
2023-03-12T20:04:02.600Z,1.83
2023-03-12T20:06:30.096Z,1.90
2023-03-12T20:09:17.535Z,2.30
2023-03-12T20:11:47.341Z,2.38
2023-03-12T20:14:29.023Z,2.08
2023-03-12T20:17:33.594Z,2.53
2023-03-12T20:26:04.584Z,2.00
2023-03-12T20:28:38.484Z,1.95
2023-03-12T20:33:56.752Z,2.15
2023-03-12T20:36:24.914Z,2.37
2023-03-12T20:41:42.728Z,2.33
2023-03-12T20:44:38.756Z,1.92
2023-03-12T20:47:09.799Z,2.40
2023-03-12T20:49:43.743Z,2.23
2023-03-12T20:52:15.272Z,2.05
2023-03-12T20:57:53.511Z,1.92
2023-03-12T21:00:21.783Z,1.95
2023-03-12T21:02:49.543Z,1.70
2023-03-12T21:05:17.736Z,1.67
2023-03-12T21:07:54.989Z,2.05
2023-03-12T21:10:46.938Z,2.22
2023-03-12T21:13:22.950Z,1.58
2023-03-12T21:15:54.847Z,1.33
2023-03-12T21:18:25.755Z,2.17
2023-03-12T21:20:52.847Z,1.90
2023-03-12T21:26:09.337Z,2.00
2023-03-12T21:28:37.776Z,1.63
2023-03-12T21:31:22.442Z,1.77
2023-03-12T21:33:56.602Z,2.10
2023-03-12T21:36:28.809Z,2.00
2023-03-12T21:39:23.175Z,2.00
2023-03-12T21:44:49.859Z,1.58
2023-03-12T21:47:16.344Z,1.87
2023-03-12T21:49:43.757Z,1.83
2023-03-12T21:52:18.044Z,2.00
2023-03-12T21:54:48.367Z,2.00
2023-03-12T21:57:20.073Z,1.50
2023-03-12T21:59:51.792Z,1.77
2023-03-12T22:02:18.870Z,2.30
2023-03-12T22:04:52.802Z,2.13
2023-03-12T22:07:19.630Z,2.83
2023-03-12T22:09:49.698Z,2.22
2023-03-12T22:12:19.713Z,2.43
2023-03-12T22:15:06.495Z,2.72
2023-03-12T22:17:34.895Z,2.55
2023-03-12T22:20:03.738Z,2.85
2023-03-12T22:22:36.610Z,2.33
2023-03-12T22:25:03.336Z,2.47
2023-03-12T22:27:45.693Z,2.88
2023-03-12T22:30:15.872Z,2.90
2023-03-12T22:33:03.717Z,3.05
2023-03-12T22:35:50.509Z,2.40
2023-03-12T22:38:24.359Z,3.57
2023-03-12T22:40:56.061Z,3.03
2023-03-12T22:46:13.741Z,2.50
2023-03-12T22:48:56.322Z,2.67
2023-03-12T22:51:28.485Z,2.70
2023-03-12T22:53:56.216Z,2.95
2023-03-12T22:56:24.344Z,3.00
2023-03-12T22:58:53.178Z,2.20
2023-03-12T23:01:22.009Z,3.03
2023-03-12T23:03:50.932Z,3.90
2023-03-12T23:09:12.668Z,3.42
2023-03-12T23:11:41.145Z,2.65
2023-03-12T23:14:08.447Z,2.60
2023-03-12T23:16:40.181Z,2.70
2023-03-12T23:19:07.067Z,2.33
2023-03-12T23:21:41.214Z,3.35
2023-03-12T23:24:21.017Z,2.70
2023-03-12T23:26:49.710Z,2.83
2023-03-12T23:29:21.779Z,2.80
2023-03-12T23:34:35.832Z,2.55
2023-03-12T23:37:15.347Z,2.72
2023-03-12T23:39:54.035Z,2.03
2023-03-12T23:42:21.791Z,2.27
2023-03-12T23:44:56.114Z,2.47
2023-03-12T23:47:22.886Z,3.45
2023-03-12T23:49:49.754Z,2.45
2023-03-12T23:52:28.493Z,2.70
2023-03-12T23:54:58.535Z,2.27
